Terminal Aerodrome Forecast
Issued by NWS

Home | Current Version | Previous Version | Text Only | Print | Product List | Glossary On
Versions: 1 2 3 4 5 6 7 8 9 10 11 12 13 14 15 16 17
000
FTUS45 KTFX 291039 AAC
TAFCTB
TAF AMD
KCTB 291039Z 2911/3006 VRB06KT 5SM BR SKC
      TEMPO 2911/2914 1SM BR SCT008
     FM291500 15011KT P6SM SCT030
     FM292200 10010KT P6SM VCSH SCT030 BKN060=

USA.gov is the U.S. government's official web portal to all federal, state and local government web resources and services.